createdAt,value
2022-12-23T00:03:26.563Z,16.92
2022-12-23T00:08:31.205Z,19.35
2022-12-23T00:13:53.088Z,19.13
2022-12-23T00:18:59.630Z,18.58
2022-12-23T00:24:04.344Z,18.23
2022-12-23T00:29:08.995Z,18.73
2022-12-23T00:34:14.954Z,18.90
2022-12-23T00:39:36.692Z,19.02
2022-12-23T00:44:42.116Z,17.10
2022-12-23T00:49:48.429Z,18.45
2022-12-23T00:54:52.914Z,18.80
2022-12-23T00:59:57.444Z,18.10
2022-12-23T01:05:21.056Z,18.73
2022-12-23T01:10:25.518Z,19.05
2022-12-23T01:15:29.965Z,18.05
2022-12-23T01:20:35.995Z,20.27
2022-12-23T01:25:40.462Z,19.73
2022-12-23T01:30:44.894Z,18.77
2022-12-23T01:35:50.918Z,18.35
2022-12-23T01:40:55.761Z,18.80
2022-12-23T01:46:00.829Z,17.13
2022-12-23T01:51:10.161Z,17.75
2022-12-23T01:56:18.575Z,19.20
2022-12-23T02:01:41.107Z,18.30
2022-12-23T02:07:07.316Z,17.17
2022-12-23T02:12:33.090Z,16.33
2022-12-23T02:17:45.623Z,16.92
2022-12-23T02:23:16.860Z,17.45
2022-12-23T02:28:51.029Z,18.65
2022-12-23T02:34:03.894Z,18.85
2022-12-23T02:39:12.265Z,19.85
2022-12-23T02:44:24.821Z,17.52
2022-12-23T02:49:34.948Z,19.42
2022-12-23T02:54:46.522Z,22.23
2022-12-23T02:59:53.459Z,20.88
2022-12-23T03:05:00.960Z,22.58
2022-12-23T03:10:14.907Z,21.40
2022-12-23T03:15:28.785Z,18.02
2022-12-23T03:20:44.210Z,22.10
2022-12-23T03:25:59.183Z,20.33
2022-12-23T03:31:05.303Z,18.73
2022-12-23T03:36:14.832Z,21.10
2022-12-23T03:41:26.492Z,21.60
2022-12-23T03:46:35.773Z,21.67
2022-12-23T03:51:47.607Z,20.13
2022-12-23T03:56:56.335Z,19.42
2022-12-23T04:02:08.700Z,21.33
2022-12-23T04:07:20.052Z,20.50
2022-12-23T04:12:26.969Z,19.88
2022-12-23T04:17:31.430Z,20.63
2022-12-23T04:22:37.702Z,20.13
2022-12-23T04:27:42.261Z,22.23
2022-12-23T04:32:46.941Z,21.70
2022-12-23T04:37:52.841Z,20.55
2022-12-23T04:42:59.721Z,21.13
2022-12-23T04:48:04.305Z,19.75
2022-12-23T04:53:10.500Z,21.30
2022-12-23T04:58:15.123Z,19.50
2022-12-23T05:03:19.942Z,21.88
2022-12-23T05:08:26.050Z,20.43
2022-12-23T05:13:30.553Z,19.10
2022-12-23T05:18:35.180Z,21.58
2022-12-23T05:23:41.310Z,23.45
2022-12-23T05:28:47.561Z,21.13
2022-12-23T05:33:52.208Z,20.10
2022-12-23T05:38:58.688Z,22.95
2022-12-23T05:44:03.143Z,20.23
2022-12-23T05:49:07.645Z,18.45
2022-12-23T05:54:13.568Z,19.25
2022-12-23T05:59:19.517Z,21.08
2022-12-23T06:04:24.169Z,18.60
2022-12-23T06:09:30.401Z,19.50
2022-12-23T06:14:35.047Z,21.23
2022-12-23T06:19:39.869Z,23.10
2022-12-23T06:24:46.183Z,21.10
2022-12-23T06:29:51.208Z,21.38
2022-12-23T06:34:57.938Z,19.83
2022-12-23T06:40:05.523Z,20.98
2022-12-23T06:45:11.469Z,19.92
2022-12-23T06:50:16.047Z,17.75
2022-12-23T06:55:21.968Z,18.15
2022-12-23T07:00:26.655Z,19.92
2022-12-23T07:05:37.013Z,19.17
2022-12-23T07:10:44.011Z,17.52
2022-12-23T07:15:48.607Z,18.40
2022-12-23T07:20:53.480Z,15.85
2022-12-23T07:25:59.521Z,17.47
2022-12-23T07:31:06.987Z,17.05
2022-12-23T07:36:11.629Z,16.33
2022-12-23T07:41:17.661Z,16.80
2022-12-23T07:46:22.459Z,17.92
2022-12-23T07:51:27.206Z,18.98
2022-12-23T07:56:33.329Z,18.95
2022-12-23T08:01:37.906Z,20.75
2022-12-23T08:06:42.770Z,18.02
2022-12-23T08:11:48.779Z,16.77
2022-12-23T08:16:53.372Z,17.77
2022-12-23T08:22:00.380Z,17.02
2022-12-23T08:27:06.475Z,16.00
2022-12-23T08:32:11.089Z,16.23
2022-12-23T08:37:15.559Z,14.55
2022-12-23T08:42:21.526Z,14.60
2022-12-23T08:52:30.249Z,17.30
2022-12-23T08:57:37.081Z,15.52
2022-12-23T09:02:41.891Z,15.25
2022-12-23T09:07:47.064Z,20.33
2022-12-23T09:12:53.390Z,17.83
2022-12-23T09:17:57.879Z,14.48
2022-12-23T09:23:02.637Z,15.77
2022-12-23T09:28:09.386Z,14.98
2022-12-23T09:33:14.780Z,13.70
2022-12-23T09:38:19.133Z,13.63
2022-12-23T09:43:33.741Z,15.35
2022-12-23T09:48:43.599Z,14.85
2022-12-23T09:53:58.011Z,14.05
2022-12-23T09:59:12.848Z,13.10
2022-12-23T10:04:35.752Z,14.25
2022-12-23T10:09:42.616Z,11.32
2022-12-23T10:14:51.792Z,14.07
2022-12-23T10:20:01.072Z,14.07
2022-12-23T10:25:14.611Z,12.43
2022-12-23T10:35:57.910Z,12.52
2022-12-23T10:41:10.012Z,11.60
2022-12-23T10:46:24.871Z,12.93
2022-12-23T10:51:34.815Z,12.43
2022-12-23T10:56:40.390Z,13.45
2022-12-23T11:01:51.570Z,12.60
2022-12-23T11:07:26.179Z,13.32
2022-12-23T11:12:24.992Z,15.77
2022-12-23T11:17:33.369Z,14.73
2022-12-23T11:22:47.961Z,14.93
2022-12-23T11:27:55.980Z,13.95
2022-12-23T11:33:02.023Z,13.95
2022-12-23T11:38:13.756Z,14.80
2022-12-23T11:43:21.114Z,14.10
2022-12-23T11:48:31.811Z,14.18
2022-12-23T11:53:38.129Z,13.88
2022-12-23T11:58:50.159Z,14.68
2022-12-23T12:04:00.742Z,12.82
2022-12-23T12:09:07.265Z,13.63
2022-12-23T12:14:23.304Z,14.20
2022-12-23T12:24:40.281Z,16.88
2022-12-23T12:29:50.393Z,18.42
2022-12-23T12:35:00.242Z,20.55
2022-12-23T12:40:15.378Z,17.98
2022-12-23T12:45:25.245Z,15.97
2022-12-23T12:50:35.325Z,18.00
2022-12-23T12:55:59.806Z,16.80
2022-12-23T13:01:18.858Z,14.57
2022-12-23T13:06:35.967Z,14.38
2022-12-23T13:11:47.514Z,15.35
2022-12-23T13:17:04.176Z,16.00
2022-12-23T13:22:14.290Z,15.88
2022-12-23T13:27:23.326Z,15.25
2022-12-23T13:32:44.915Z,13.95
2022-12-23T13:37:57.950Z,13.80
2022-12-23T13:43:11.674Z,14.30
2022-12-23T13:48:32.149Z,16.70
2022-12-23T13:53:51.235Z,16.75
2022-12-23T13:58:59.220Z,16.85
2022-12-23T14:04:36.084Z,18.55
2022-12-23T14:09:43.309Z,16.77
2022-12-23T14:15:04.313Z,19.83
2022-12-23T14:20:21.831Z,16.85
2022-12-23T14:25:54.253Z,17.27
2022-12-23T14:30:59.410Z,17.38
2022-12-23T14:36:26.632Z,15.55
2022-12-23T14:41:50.639Z,17.63
2022-12-23T14:47:02.744Z,20.10
2022-12-23T14:52:50.590Z,20.42
2022-12-23T14:58:08.705Z,23.15
2022-12-23T15:03:14.223Z,19.77
2022-12-23T15:08:32.076Z,20.33
2022-12-23T15:13:39.428Z,33.88
2022-12-23T15:18:54.246Z,37.97
2022-12-23T15:23:58.895Z,20.48
2022-12-23T15:34:22.590Z,17.83
2022-12-23T15:39:33.720Z,18.42
2022-12-23T15:44:40.915Z,19.58
2022-12-23T15:49:46.452Z,18.35
2022-12-23T15:55:04.306Z,18.42
2022-12-23T16:00:20.939Z,17.10
2022-12-23T16:05:30.361Z,18.23
2022-12-23T16:10:35.034Z,20.75
2022-12-23T16:15:41.080Z,18.60
2022-12-23T16:20:48.462Z,17.23
2022-12-23T16:25:54.822Z,15.32
2022-12-23T16:31:00.901Z,14.93
2022-12-23T16:36:33.382Z,13.15
2022-12-23T16:41:38.263Z,12.60
2022-12-23T16:46:49.218Z,13.93
2022-12-23T16:52:10.732Z,12.73
2022-12-23T16:57:27.913Z,13.15
2022-12-23T17:02:36.456Z,15.88
2022-12-23T17:07:45.671Z,14.00
2022-12-23T17:13:27.618Z,13.73
2022-12-23T17:18:43.116Z,14.10
2022-12-23T17:24:20.105Z,13.43
2022-12-23T17:29:28.563Z,12.75
2022-12-23T17:34:53.014Z,13.20
2022-12-23T17:40:02.162Z,12.00
2022-12-23T17:45:10.709Z,12.40
2022-12-23T17:50:16.871Z,12.40
2022-12-23T17:55:23.036Z,13.23
2022-12-23T18:00:33.971Z,15.13
2022-12-23T18:05:40.450Z,15.23
2022-12-23T18:10:45.749Z,13.77
2022-12-23T18:15:51.375Z,13.80
2022-12-23T18:20:58.770Z,14.15
2022-12-23T18:26:03.314Z,11.63
2022-12-23T18:31:08.207Z,15.43
2022-12-23T18:36:22.797Z,13.80
2022-12-23T18:41:28.839Z,14.00
2022-12-23T18:51:39.137Z,13.90
2022-12-23T18:56:44.053Z,14.95
2022-12-23T19:01:48.970Z,14.87
2022-12-23T19:06:56.452Z,17.88
2022-12-23T19:12:01.009Z,15.05
2022-12-23T19:17:05.634Z,15.90
2022-12-23T19:22:11.751Z,16.95
2022-12-23T19:27:16.494Z,17.70
2022-12-23T19:32:21.127Z,15.63
2022-12-23T19:37:27.573Z,16.13
2022-12-23T19:42:33.982Z,14.65
2022-12-23T19:47:38.934Z,14.23
2022-12-23T19:52:44.982Z,16.17
2022-12-23T20:02:58.633Z,16.13
2022-12-23T20:08:05.356Z,15.65
2022-12-23T20:13:09.831Z,15.10
2022-12-23T20:18:14.407Z,14.25
2022-12-23T20:23:20.481Z,17.55
2022-12-23T20:28:25.212Z,16.45
2022-12-23T20:33:29.753Z,13.88
2022-12-23T20:38:37.235Z,15.43
2022-12-23T20:43:42.608Z,25.08
2022-12-23T20:48:48.833Z,15.23
2022-12-23T20:53:58.708Z,18.92
2022-12-23T20:59:04.178Z,13.10
2022-12-23T21:04:11.583Z,17.63
2022-12-23T21:09:17.993Z,15.23
2022-12-23T21:14:22.477Z,15.10
2022-12-23T21:19:27.904Z,15.77
2022-12-23T21:24:35.593Z,15.68
2022-12-23T21:29:40.256Z,15.52
2022-12-23T21:34:44.790Z,14.95
2022-12-23T21:39:52.674Z,14.57
2022-12-23T21:44:57.197Z,14.90
2022-12-23T21:50:01.756Z,14.13
2022-12-23T21:55:08.427Z,14.70
2022-12-23T22:00:13.689Z,14.40
2022-12-23T22:05:18.257Z,15.07
2022-12-23T22:10:24.163Z,13.70
2022-12-23T22:15:28.746Z,13.25
2022-12-23T22:20:41.165Z,13.68
2022-12-23T22:25:55.105Z,13.52
2022-12-23T22:31:03.624Z,12.63
2022-12-23T22:36:09.036Z,14.00
2022-12-23T22:41:16.219Z,14.07
2022-12-23T22:46:21.058Z,14.13
2022-12-23T22:51:27.712Z,12.70
2022-12-23T22:56:33.879Z,12.43
2022-12-23T23:01:40.173Z,11.30
2022-12-23T23:06:44.752Z,12.77
2022-12-23T23:11:51.447Z,14.43
2022-12-23T23:16:56.134Z,13.85
2022-12-23T23:22:01.141Z,10.52
2022-12-23T23:27:07.218Z,10.98
2022-12-23T23:37:16.223Z,12.70
2022-12-23T23:42:22.202Z,12.63
2022-12-23T23:47:26.751Z,12.48
2022-12-23T23:52:31.267Z,11.75
2022-12-23T23:57:37.240Z,14.32
